Time;durP1;ratioP1;P1;durP2;ratioP2;P2;SDS_P1;SDS_P2;PMS_P1;PMS_P2;Temp;Humidity;BMP_temperature;BMP_pressure;BME280_temperature;BME280_humidity;BME280_pressure;Samples;Min_cycle;Max_cycle;Signal;HPM_P1;HPM_P2
2023/11/04 00:00:21;;;;;;;3.03;2.10;;;;;;;8.82;89.24;98509.16;5017936;28;20429;-73
2023/11/04 00:02:47;;;;;;;7.47;2.17;;;;;;;8.76;89.65;98508.00;5020352;28;20238;-73
2023/11/04 00:05:14;;;;;;;1.90;1.60;;;;;;;8.74;89.59;98505.72;5019684;28;20191;-74
2023/11/04 00:07:40;;;;;;;3.90;1.70;;;;;;;8.73;89.54;98512.09;5021455;28;20211;-73
2023/11/04 00:10:08;;;;;;;4.67;1.73;;;;;;;8.70;89.49;98504.19;5019988;28;20206;-74
2023/11/04 00:12:34;;;;;;;3.27;1.60;;;;;;;8.66;89.77;98522.56;5019333;28;20309;-74
2023/11/04 00:15:01;;;;;;;4.63;1.70;;;;;;;8.64;90.15;98518.78;5019332;28;20226;-73
2023/11/04 00:17:28;;;;;;;7.73;2.10;;;;;;;8.60;89.92;98523.25;5018844;28;20276;-73
2023/11/04 00:19:55;;;;;;;5.00;1.90;;;;;;;8.58;90.08;98522.84;5016961;28;20436;-73
2023/11/04 00:22:21;;;;;;;7.60;1.90;;;;;;;8.55;90.06;98524.31;5016368;28;20222;-73
2023/11/04 00:24:53;;;;;;;6.00;1.70;;;;;;;8.54;90.13;98524.69;4996728;28;20214;-73
2023/11/04 00:27:19;;;;;;;4.77;2.20;;;;;;;8.52;90.55;98527.69;5007221;28;20622;-73
2023/11/04 00:29:45;;;;;;;3.40;1.43;;;;;;;8.50;90.71;98537.78;4998750;28;20607;-73
2023/11/04 00:32:12;;;;;;;4.60;1.67;;;;;;;8.50;90.52;98537.06;4992345;28;20785;-73
2023/11/04 00:34:41;;;;;;;6.97;1.73;;;;;;;8.50;90.85;98540.41;5014157;28;20225;-74
2023/11/04 00:37:08;;;;;;;4.33;1.67;;;;;;;8.50;90.55;98537.78;4996470;28;20201;-74
2023/11/04 00:39:35;;;;;;;7.17;1.70;;;;;;;8.49;90.57;98538.91;5003462;28;20206;-73
2023/11/04 00:42:02;;;;;;;7.30;1.37;;;;;;;8.48;90.76;98540.03;4993872;28;20711;-74
2023/11/04 00:44:29;;;;;;;5.53;2.07;;;;;;;8.48;90.51;98547.16;4995461;28;21190;-73
2023/11/04 00:46:55;;;;;;;7.77;2.33;;;;;;;8.47;90.41;98549.06;5003417;28;20307;-73
2023/11/04 00:49:21;;;;;;;4.33;1.70;;;;;;;8.46;91.03;98560.69;4995723;28;20223;-73
2023/11/04 00:51:49;;;;;;;6.93;2.30;;;;;;;8.44;90.79;98556.91;4994283;28;20603;-74
2023/11/04 00:54:16;;;;;;;3.23;1.77;;;;;;;8.43;90.80;98564.03;5017831;28;20285;-74
2023/11/04 00:56:42;;;;;;;3.33;1.70;;;;;;;8.42;90.03;98565.16;5000720;28;20866;-73
2023/11/04 00:59:09;;;;;;;5.13;1.70;;;;;;;8.42;90.25;98562.53;5000341;28;20232;-74
2023/11/04 01:01:35;;;;;;;8.17;1.80;;;;;;;8.42;90.61;98567.00;4997681;28;20575;-74
2023/11/04 01:04:01;;;;;;;8.00;1.70;;;;;;;8.41;90.36;98571.53;4996487;28;20565;-73
2023/11/04 01:06:28;;;;;;;6.43;1.83;;;;;;;8.42;89.99;98575.66;5016970;28;20218;-73
2023/11/04 01:08:55;;;;;;;5.70;1.73;;;;;;;8.41;90.51;98571.53;5018788;28;20217;-73
2023/11/04 01:11:22;;;;;;;5.60;2.03;;;;;;;8.40;89.99;98577.16;5013306;28;20795;-73
2023/11/04 01:13:48;;;;;;;4.23;1.90;;;;;;;8.36;89.10;98574.47;5014659;28;20316;-73
2023/11/04 01:16:14;;;;;;;8.30;1.53;;;;;;;8.38;89.47;98582.75;4995636;28;20778;-73
2023/11/04 01:18:41;;;;;;;7.57;1.80;;;;;;;8.35;88.97;98580.84;5003768;28;20206;-73
2023/11/04 01:21:07;;;;;;;4.23;2.00;;;;;;;8.34;89.30;98579.31;4999481;28;20221;-73
2023/11/04 01:23:35;;;;;;;3.37;1.63;;;;;;;8.32;88.78;98589.44;4996893;28;20245;-73
2023/11/04 01:26:04;;;;;;;6.60;1.77;;;;;;;8.31;88.78;98585.31;4996397;28;20202;-73
2023/11/04 01:28:30;;;;;;;5.70;1.90;;;;;;;8.29;88.55;98590.16;4996798;28;20235;-73
2023/11/04 01:30:56;;;;;;;4.17;1.70;;;;;;;8.28;88.79;98595.78;5018224;28;20565;-73
2023/11/04 01:33:26;;;;;;;5.03;1.67;;;;;;;8.26;88.13;98598.78;4999795;28;20326;-73
2023/11/04 01:35:53;;;;;;;7.00;1.90;;;;;;;8.26;88.51;98592.75;5017803;28;20240;-73
2023/11/04 01:38:20;;;;;;;6.33;1.50;;;;;;;8.26;88.03;98598.00;5017116;28;20588;-73
2023/11/04 01:40:49;;;;;;;3.30;1.50;;;;;;;8.25;88.26;98601.75;5021730;28;20710;-73
2023/11/04 01:43:25;;;;;;;6.20;1.77;;;;;;;8.23;87.52;98601.38;4998381;28;20233;-73
2023/11/04 01:46:04;;;;;;;3.90;1.60;;;;;;;8.23;87.11;98596.09;4998669;28;20211;-73
2023/11/04 01:48:31;;;;;;;3.93;1.53;;;;;;;8.19;87.22;98603.16;5016073;28;20847;-73
2023/11/04 01:50:58;;;;;;;4.77;1.60;;;;;;;8.16;87.50;98606.47;5017734;28;20220;-74
2023/11/04 01:53:24;;;;;;;5.50;1.70;;;;;;;8.13;86.98;98602.69;5017386;28;20233;-73
2023/11/04 01:55:52;;;;;;;4.03;1.60;;;;;;;8.10;85.94;98603.44;5017533;28;20695;-73
2023/11/04 01:58:19;;;;;;;6.33;1.50;;;;;;;8.06;86.79;98607.88;5014130;28;20250;-72
2023/11/04 02:00:49;;;;;;;3.80;1.73;;;;;;;8.03;86.88;98610.47;4995329;28;20240;-73
2023/11/04 02:03:17;;;;;;;6.60;1.77;;;;;;;7.98;87.00;98608.88;4994230;28;20232;-73
2023/11/04 02:05:43;;;;;;;8.60;1.80;;;;;;;7.92;86.49;98602.41;4998902;28;20281;-72
2023/11/04 02:08:10;;;;;;;5.43;1.70;;;;;;;7.89;86.27;98607.63;4995786;28;20655;-73
2023/11/04 02:10:36;;;;;;;3.73;1.33;;;;;;;7.84;86.61;98616.59;5015831;28;20197;-73
2023/11/04 02:13:03;;;;;;;8.37;1.30;;;;;;;7.79;86.57;98610.88;5000402;28;20225;-73
2023/11/04 02:15:29;;;;;;;3.70;1.60;;;;;;;7.75;86.58;98612.69;4996768;28;20312;-73
2023/11/04 02:17:57;;;;;;;5.63;1.77;;;;;;;7.70;86.56;98620.84;4998258;28;20208;-73
2023/11/04 02:20:26;;;;;;;5.83;1.60;;;;;;;7.63;86.69;98613.66;5008905;28;20341;-73
2023/11/04 02:22:54;;;;;;;7.60;1.50;;;;;;;7.58;86.88;98627.09;5015379;28;20216;-73
2023/11/04 02:25:20;;;;;;;7.20;1.90;;;;;;;7.56;87.26;98625.91;5013133;28;20209;-73
2023/11/04 02:27:46;;;;;;;5.80;1.90;;;;;;;7.52;88.45;98618.00;4997449;28;20388;-73
2023/11/04 02:30:13;;;;;;;4.23;1.50;;;;;;;7.48;87.18;98626.91;4995169;28;20634;-73
2023/11/04 02:32:39;;;;;;;5.87;1.50;;;;;;;7.46;87.18;98629.13;4995873;28;20240;-74
2023/11/04 02:35:06;;;;;;;7.27;2.07;;;;;;;7.42;88.05;98636.97;4998081;28;20344;-72
2023/11/04 02:37:33;;;;;;;4.37;1.30;;;;;;;7.39;87.59;98640.28;4995932;28;20600;-73
2023/11/04 02:40:01;;;;;;;7.33;2.07;;;;;;;7.36;88.20;98638.34;5000759;28;20291;-73
2023/11/04 02:42:27;;;;;;;5.07;1.80;;;;;;;7.32;88.33;98639.41;5014152;28;20224;-73
2023/11/04 02:44:52;;;;;;;7.27;1.60;;;;;;;7.30;88.04;98642.38;5001000;28;20709;-73
2023/11/04 02:47:19;;;;;;;2.40;1.40;;;;;;;7.30;87.21;98644.25;5000004;28;20452;-73
2023/11/04 02:49:45;;;;;;;4.33;1.40;;;;;;;7.27;87.25;98644.94;4995810;28;20304;-73
2023/11/04 02:52:11;;;;;;;5.30;1.50;;;;;;;7.25;88.00;98644.53;4999253;28;20235;-72
2023/11/04 02:54:39;;;;;;;9.10;1.90;;;;;;;7.23;87.77;98638.88;5001248;28;20219;-73
2023/11/04 02:57:06;;;;;;;3.07;1.40;;;;;;;7.20;88.25;98637.69;4997132;28;20725;-73
2023/11/04 02:59:33;;;;;;;6.40;1.77;;;;;;;7.19;88.19;98636.19;4992017;28;20212;-72
2023/11/04 03:02:00;;;;;;;6.30;1.60;;;;;;;7.19;87.91;98646.69;5016242;28;20833;-73
2023/11/04 03:04:26;;;;;;;3.53;1.40;;;;;;;7.15;88.07;98643.25;5012427;28;20204;-73
2023/11/04 03:06:53;;;;;;;5.77;1.30;;;;;;;7.14;88.71;98649.59;5016992;28;20573;-73
2023/11/04 03:09:19;;;;;;;6.27;1.60;;;;;;;7.12;88.07;98645.81;4996024;28;20215;-73
2023/11/04 03:11:45;;;;;;;8.23;2.10;;;;;;;7.11;88.25;98646.91;5014561;28;20200;-73
2023/11/04 03:14:13;;;;;;;6.53;2.30;;;;;;;7.10;88.49;98654.03;4997795;28;20729;-73
2023/11/04 03:16:40;;;;;;;2.50;1.70;;;;;;;7.10;89.26;98651.41;5012811;28;20232;-73
2023/11/04 03:19:06;;;;;;;4.77;1.83;;;;;;;7.11;88.65;98655.56;5012063;28;20211;-73
2023/11/04 03:21:32;;;;;;;3.67;1.67;;;;;;;7.11;89.52;98658.19;5010009;28;20789;-73
2023/11/04 03:23:59;;;;;;;3.07;1.70;;;;;;;7.13;88.12;98658.59;5011246;28;20716;-73
2023/11/04 03:26:25;;;;;;;4.70;1.73;;;;;;;7.14;89.17;98654.09;5006326;28;20204;-73
2023/11/04 03:28:51;;;;;;;4.80;1.80;;;;;;;7.13;89.42;98655.97;5013658;28;20203;-73
2023/11/04 03:31:19;;;;;;;3.47;1.40;;;;;;;7.14;88.89;98656.72;5011338;28;20200;-73
2023/11/04 03:33:46;;;;;;;2.60;1.53;;;;;;;7.15;88.60;98658.25;5013640;28;20648;-74
2023/11/04 03:36:12;;;;;;;2.60;1.40;;;;;;;7.16;88.09;98657.13;5013866;28;20220;-73
2023/11/04 03:38:39;;;;;;;7.83;1.90;;;;;;;7.16;88.66;98657.13;4994638;28;20215;-73
2023/11/04 03:41:06;;;;;;;3.20;1.80;;;;;;;7.16;88.16;98652.66;4994762;28;20200;-73
2023/11/04 03:43:33;;;;;;;5.43;1.70;;;;;;;7.17;88.28;98650.78;5010219;28;20355;-73
2023/11/04 03:45:59;;;;;;;3.37;1.53;;;;;;;7.17;88.93;98659.41;4987584;28;20208;-73
2023/11/04 03:48:27;;;;;;;9.03;1.83;;;;;;;7.16;88.11;98657.91;5009035;28;20551;-73
2023/11/04 03:50:53;;;;;;;4.13;2.10;;;;;;;7.16;88.37;98665.00;5013802;28;20204;-72
2023/11/04 03:53:19;;;;;;;2.27;1.27;;;;;;;7.15;87.91;98663.50;5015019;28;20793;-73
2023/11/04 03:55:46;;;;;;;6.83;1.73;;;;;;;7.12;88.71;98664.94;5014410;28;20251;-73
2023/11/04 03:58:13;;;;;;;4.17;1.63;;;;;;;7.12;88.16;98664.19;5014081;28;20228;-72
2023/11/04 04:00:40;;;;;;;4.50;1.57;;;;;;;7.10;88.18;98666.41;5011509;28;20621;-73
2023/11/04 04:03:07;;;;;;;4.40;1.67;;;;;;;7.09;88.07;98664.88;4990651;28;20227;-73
2023/11/04 04:05:34;;;;;;;7.70;1.53;;;;;;;7.08;88.47;98658.09;5012115;28;21241;-73
2023/11/04 04:08:01;;;;;;;5.23;1.20;;;;;;;7.06;88.38;98666.34;5017795;28;20215;-73
2023/11/04 04:10:27;;;;;;;5.33;1.80;;;;;;;7.05;88.41;98670.06;5010005;28;20266;-72
2023/11/04 04:12:53;;;;;;;8.30;2.20;;;;;;;7.02;88.34;98665.50;5012384;28;20224;-73
2023/11/04 04:15:20;;;;;;;2.57;1.33;;;;;;;7.01;88.06;98669.25;5014718;28;20207;-72
2023/11/04 04:17:46;;;;;;;4.90;1.50;;;;;;;6.99;88.03;98668.81;5014765;28;20211;-73
2023/11/04 04:20:14;;;;;;;4.30;1.50;;;;;;;6.98;88.06;98671.78;5016955;28;20208;-73
2023/11/04 04:22:41;;;;;;;4.90;1.77;;;;;;;6.95;87.92;98662.75;4996979;28;20238;-72
2023/11/04 04:25:09;;;;;;;3.93;1.60;;;;;;;6.94;88.54;98665.75;5014101;28;20618;-73
2023/11/04 04:27:36;;;;;;;3.63;1.60;;;;;;;6.93;88.46;98658.94;5004999;28;20206;-73
2023/11/04 04:30:02;;;;;;;3.47;1.33;;;;;;;6.89;87.61;98656.25;5013183;28;20210;-72
2023/11/04 04:32:29;;;;;;;3.73;1.50;;;;;;;6.86;88.10;98654.34;5012315;28;20370;-72
2023/11/04 04:34:55;;;;;;;3.70;1.37;;;;;;;6.85;88.76;98654.69;5010201;28;20240;-73
2023/11/04 04:37:23;;;;;;;2.80;1.50;;;;;;;6.84;88.61;98650.56;5008921;28;20227;-73
2023/11/04 04:39:51;;;;;;;4.00;1.40;;;;;;;6.81;88.59;98648.63;5019928;28;20215;-73
2023/11/04 04:42:18;;;;;;;2.80;1.70;;;;;;;6.80;88.65;98647.09;5013751;28;20303;-72
2023/11/04 04:44:44;;;;;;;3.73;1.60;;;;;;;6.77;88.13;98645.16;5011249;28;20212;-73
2023/11/04 04:47:10;;;;;;;5.77;2.07;;;;;;;6.76;88.02;98656.75;5017380;28;20212;-73
2023/11/04 04:49:37;;;;;;;3.17;1.30;;;;;;;6.73;87.99;98654.84;5015660;28;20876;-73
2023/11/04 04:52:03;;;;;;;4.30;1.53;;;;;;;6.71;88.30;98654.41;5014487;28;20255;-73
2023/11/04 04:54:30;;;;;;;1.53;1.20;;;;;;;6.67;87.91;98651.72;5012390;28;20579;-73
2023/11/04 04:56:58;;;;;;;4.27;1.60;;;;;;;6.64;89.15;98649.78;5017085;28;20244;-73
2023/11/04 04:59:24;;;;;;;7.60;1.50;;;;;;;6.61;88.84;98658.34;5014280;28;20692;-73
2023/11/04 05:01:51;;;;;;;6.33;1.63;;;;;;;6.60;89.27;98656.06;5014768;28;20219;-73
2023/11/04 05:04:17;;;;;;;2.07;1.30;;;;;;;6.56;89.12;98656.00;5014033;28;20215;-73
2023/11/04 05:06:43;;;;;;;6.73;1.80;;;;;;;6.56;89.34;98665.72;5013857;28;20208;-73
2023/11/04 05:09:10;;;;;;;4.03;1.60;;;;;;;6.53;89.25;98664.56;5011645;28;20227;-73
2023/11/04 05:11:36;;;;;;;2.20;1.40;;;;;;;6.50;88.60;98665.25;5012298;28;20214;-73
2023/11/04 05:14:04;;;;;;;6.57;1.60;;;;;;;6.48;88.50;98661.47;5013532;28;20208;-73
2023/11/04 05:16:30;;;;;;;8.73;1.70;;;;;;;6.45;88.45;98662.91;5014971;28;20250;-73
2023/11/04 05:18:57;;;;;;;4.40;1.60;;;;;;;6.44;88.65;98660.63;5017386;28;20272;-73
2023/11/04 05:21:24;;;;;;;4.13;1.70;;;;;;;6.41;89.59;98664.69;5014924;28;20215;-73
2023/11/04 05:23:51;;;;;;;4.03;1.43;;;;;;;6.39;89.49;98668.75;4994586;28;20224;-73
2023/11/04 05:26:18;;;;;;;4.90;1.70;;;;;;;6.34;89.40;98667.19;5003898;28;20211;-73
2023/11/04 05:28:44;;;;;;;7.47;1.70;;;;;;;6.33;89.54;98670.88;5014507;28;20200;-73
2023/11/04 05:31:12;;;;;;;4.73;1.70;;;;;;;6.31;89.06;98675.72;5017822;28;20204;-73
2023/11/04 05:33:38;;;;;;;3.50;1.40;;;;;;;6.30;89.13;98683.91;5015662;28;20481;-73
2023/11/04 05:36:05;;;;;;;8.47;2.30;;;;;;;6.28;89.87;98673.03;5018073;28;20216;-72
2023/11/04 05:38:32;;;;;;;5.63;1.70;;;;;;;6.25;90.04;98671.84;5008180;28;20211;-73
2023/11/04 05:40:58;;;;;;;4.40;1.87;;;;;;;6.22;90.17;98674.41;5014243;28;20203;-73
2023/11/04 05:43:25;;;;;;;6.83;2.23;;;;;;;6.19;89.74;98667.97;4991960;28;20606;-72
2023/11/04 05:45:52;;;;;;;4.33;1.90;;;;;;;6.18;90.30;98665.69;5018649;28;20278;-72
2023/11/04 05:48:20;;;;;;;3.73;1.53;;;;;;;6.15;90.51;98669.00;5013278;28;20208;-73
2023/11/04 05:50:46;;;;;;;7.13;2.13;;;;;;;6.13;90.17;98669.34;5018212;28;20208;-72
2023/11/04 05:53:13;;;;;;;8.63;1.70;;;;;;;6.11;89.88;98674.16;5015178;28;20235;-73
2023/11/04 05:55:40;;;;;;;2.73;1.70;;;;;;;6.10;90.66;98671.88;5014129;28;20212;-73
2023/11/04 05:58:06;;;;;;;4.20;1.80;;;;;;;6.08;90.74;98679.31;5002789;28;20502;-73
2023/11/04 06:00:33;;;;;;;5.60;1.80;;;;;;;6.08;90.72;98684.56;5077145;22;20230;-73
2023/11/04 06:02:59;;;;;;;7.87;1.77;;;;;;;6.08;90.96;98689.81;5041040;28;20206;-73
2023/11/04 06:05:27;;;;;;;2.97;1.77;;;;;;;6.06;90.52;98690.13;5046538;28;20211;-72
2023/11/04 06:07:54;;;;;;;9.73;2.20;;;;;;;6.07;90.47;98685.69;5047981;28;20195;-73
2023/11/04 06:10:21;;;;;;;8.33;1.97;;;;;;;6.09;91.00;98688.69;5048472;28;20208;-73
2023/11/04 06:12:48;;;;;;;4.57;1.90;;;;;;;6.08;90.94;98695.81;5044315;28;20203;-72
2023/11/04 06:15:14;;;;;;;7.10;1.93;;;;;;;6.11;91.17;98691.75;5056917;23;20739;-69
2023/11/04 06:17:40;;;;;;;3.00;1.70;;;;;;;6.12;90.93;98698.50;5036786;28;20227;-70
2023/11/04 06:20:08;;;;;;;5.33;2.00;;;;;;;6.12;90.72;98690.66;5037380;28;20192;-70
2023/11/04 06:22:36;;;;;;;3.83;1.87;;;;;;;6.14;91.30;98696.28;5036427;28;20211;-71
2023/11/04 06:25:03;;;;;;;2.83;1.50;;;;;;;6.16;90.41;98696.75;5039025;28;20219;-70
2023/11/04 06:27:30;;;;;;;5.53;1.80;;;;;;;6.17;91.21;98706.09;5034785;28;20207;-69
2023/11/04 06:29:56;;;;;;;7.43;2.33;;;;;;;6.16;90.87;98702.72;5038285;28;20203;-70
2023/11/04 06:32:22;;;;;;;4.47;1.87;;;;;;;6.17;91.20;98709.47;5033929;28;20585;-70
2023/11/04 06:34:49;;;;;;;6.13;2.20;;;;;;;6.19;91.23;98704.66;5035567;28;20234;-70
2023/11/04 06:37:15;;;;;;;5.17;1.97;;;;;;;6.19;91.29;98698.66;5034481;28;20215;-70
2023/11/04 06:39:43;;;;;;;7.27;2.27;;;;;;;6.19;91.08;98703.91;5035028;28;20214;-70
2023/11/04 06:42:10;;;;;;;4.73;2.10;;;;;;;6.20;90.79;98700.94;5035048;28;20783;-68
2023/11/04 06:44:37;;;;;;;4.17;2.40;;;;;;;6.20;90.40;98692.31;5032229;28;20254;-70
2023/11/04 06:47:03;;;;;;;7.07;2.40;;;;;;;6.21;90.45;98704.34;5034411;28;20207;-70
2023/11/04 06:49:30;;;;;;;4.07;2.40;;;;;;;6.21;90.45;98701.72;5034034;28;20524;-70
2023/11/04 06:51:57;;;;;;;3.90;2.47;;;;;;;6.21;90.46;98704.34;5036796;28;20207;-69
2023/11/04 06:54:23;;;;;;;5.87;2.17;;;;;;;6.22;90.85;98703.22;5034071;28;20222;-71
2023/11/04 06:56:54;;;;;;;6.27;2.30;;;;;;;6.22;90.64;98701.34;5035523;28;21168;-68
2023/11/04 06:59:21;;;;;;;6.23;2.60;;;;;;;6.22;91.36;98695.38;5036561;28;20215;-69
2023/11/04 07:01:51;;;;;;;4.40;2.70;;;;;;;6.23;91.31;98697.66;5034656;28;20210;-69
2023/11/04 07:04:17;;;;;;;4.53;2.53;;;;;;;6.24;91.58;98687.91;5034152;28;20226;-70
2023/11/04 07:06:44;;;;;;;5.90;2.37;;;;;;;6.27;91.66;98700.34;5033796;28;20203;-70
2023/11/04 07:09:11;;;;;;;8.67;2.30;;;;;;;6.29;91.07;98695.50;5036090;28;20210;-70
2023/11/04 07:11:37;;;;;;;7.80;2.43;;;;;;;6.32;91.80;98697.47;5034749;28;20210;-70
2023/11/04 07:14:05;;;;;;;6.10;2.10;;;;;;;6.35;90.82;98694.91;5032008;28;20218;-70
2023/11/04 07:16:32;;;;;;;7.00;2.23;;;;;;;6.40;91.52;98697.25;5029403;28;20230;-70
2023/11/04 07:18:58;;;;;;;4.20;1.90;;;;;;;6.44;90.68;98700.72;5035904;28;20210;-70
2023/11/04 07:21:24;;;;;;;3.30;1.70;;;;;;;6.48;90.90;98701.53;5034972;28;20231;-69
2023/11/04 07:23:51;;;;;;;7.10;2.10;;;;;;;6.52;90.70;98689.25;5030665;28;20217;-69
2023/11/04 07:26:17;;;;;;;6.57;2.03;;;;;;;6.56;90.15;98697.19;5037441;28;20230;-70
2023/11/04 07:28:43;;;;;;;10.43;2.70;;;;;;;6.58;90.45;98689.75;5032744;28;20208;-70
2023/11/04 07:31:11;;;;;;;7.17;2.50;;;;;;;6.62;90.20;98688.72;5036380;28;20207;-70
2023/11/04 07:33:37;;;;;;;4.03;2.13;;;;;;;6.67;90.48;98682.44;5040459;28;20704;-69
2023/11/04 07:36:05;;;;;;;9.70;3.07;;;;;;;6.71;89.41;98688.50;5040671;28;20227;-70
2023/11/04 07:38:32;;;;;;;6.33;2.67;;;;;;;6.76;89.04;98675.91;5023468;28;20708;-69
2023/11/04 07:40:59;;;;;;;9.40;3.13;;;;;;;6.81;89.62;98674.84;5044987;28;20214;-70
2023/11/04 07:43:25;;;;;;;5.40;2.27;;;;;;;6.87;88.60;98668.97;5040156;28;20203;-69
2023/11/04 07:45:51;;;;;;;4.47;2.50;;;;;;;6.94;88.21;98678.84;5042284;28;20246;-71
2023/11/04 07:48:19;;;;;;;4.30;2.40;;;;;;;6.98;88.49;98679.66;5044799;28;20246;-70
2023/11/04 07:50:45;;;;;;;5.57;2.07;;;;;;;7.05;88.37;98672.69;5040380;28;20207;-71
2023/11/04 07:53:12;;;;;;;5.17;1.60;;;;;;;7.13;88.67;98678.81;5043654;28;20751;-69
2023/11/04 07:55:38;;;;;;;4.73;1.80;;;;;;;7.22;87.89;98679.34;5038755;28;20231;-70
2023/11/04 07:58:04;;;;;;;2.60;1.70;;;;;;;7.26;88.00;98677.56;5037570;28;20521;-69
2023/11/04 08:00:31;;;;;;;3.40;1.53;;;;;;;7.33;87.67;98675.81;5037798;28;20207;-70
2023/11/04 08:02:58;;;;;;;3.17;1.43;;;;;;;7.38;87.53;98669.50;5032984;28;20204;-70
2023/11/04 08:05:24;;;;;;;4.90;1.43;;;;;;;7.45;87.54;98674.91;5036979;28;20228;-69
2023/11/04 08:07:51;;;;;;;1.80;1.40;;;;;;;7.55;85.30;98674.28;5040756;28;20821;-70
2023/11/04 08:10:17;;;;;;;3.20;1.90;;;;;;;7.59;85.79;98675.88;5031829;28;20215;-69
2023/11/04 08:12:43;;;;;;;5.80;2.20;;;;;;;7.65;85.56;98666.59;5037418;28;20638;-70
2023/11/04 08:15:12;;;;;;;4.93;2.03;;;;;;;7.72;84.78;98663.31;5047012;28;20596;-71
2023/11/04 08:17:38;;;;;;;7.00;1.80;;;;;;;7.80;84.23;98664.91;5043176;28;20219;-70
2023/11/04 08:20:08;;;;;;;4.03;2.70;;;;;;;7.86;83.73;98668.75;5043848;28;20204;-69
2023/11/04 08:22:37;;;;;;;3.43;1.30;;;;;;;7.92;84.48;98668.13;5039221;28;20294;-68
2023/11/04 08:25:06;;;;;;;3.00;1.50;;;;;;;7.98;84.44;98664.06;5040089;28;20231;-69
2023/11/04 08:27:32;;;;;;;5.90;1.47;;;;;;;8.06;83.43;98660.44;5040485;28;20239;-68
2023/11/04 08:29:59;;;;;;;3.87;1.87;;;;;;;8.13;83.87;98663.16;5037958;28;20214;-69
2023/11/04 08:32:25;;;;;;;4.43;1.67;;;;;;;8.22;81.80;98660.28;5045007;28;20207;-69
2023/11/04 08:34:52;;;;;;;2.30;2.00;;;;;;;8.29;81.08;98665.66;5045346;28;20227;-71
2023/11/04 08:37:18;;;;;;;6.00;2.20;;;;;;;8.34;81.37;98674.00;5047095;28;20585;-71
2023/11/04 08:39:46;;;;;;;3.47;1.90;;;;;;;8.41;81.58;98657.56;5032224;28;21167;-70
2023/11/04 08:42:12;;;;;;;6.10;2.73;;;;;;;8.47;81.28;98656.88;5039466;28;20209;-70
2023/11/04 08:44:39;;;;;;;5.20;2.07;;;;;;;8.53;82.95;98663.34;5035013;28;20285;-71
2023/11/04 08:47:05;;;;;;;5.87;2.63;;;;;;;8.59;82.01;98658.53;5039517;28;20208;-69
2023/11/04 08:49:32;;;;;;;8.57;4.77;;;;;;;8.65;82.99;98665.00;5037174;28;20215;-70
2023/11/04 08:51:59;;;;;;;2.87;2.23;;;;;;;8.69;84.37;98663.16;5037693;28;20225;-70
2023/11/04 08:54:25;;;;;;;5.23;2.63;;;;;;;8.74;82.05;98658.31;5037056;28;20299;-68
2023/11/04 08:56:53;;;;;;;10.00;3.17;;;;;;;8.81;80.28;98655.75;5038313;28;20202;-70
2023/11/04 08:59:19;;;;;;;3.27;2.20;;;;;;;8.88;78.26;98655.09;5017771;28;20273;-69
2023/11/04 09:01:47;;;;;;;3.90;2.10;;;;;;;8.94;78.71;98651.00;5035686;28;20220;-70
2023/11/04 09:04:13;;;;;;;9.03;3.90;;;;;;;8.98;78.26;98654.44;5037865;28;20277;-70
2023/11/04 09:06:40;;;;;;;5.47;2.93;;;;;;;9.02;79.65;98655.25;5036834;28;20237;-68
2023/11/04 09:09:07;;;;;;;3.63;1.90;;;;;;;9.04;80.57;98653.78;5037308;28;20205;-70
2023/11/04 09:11:34;;;;;;;5.60;2.77;;;;;;;9.06;81.30;98659.41;5033928;28;21262;-70
2023/11/04 09:14:04;;;;;;;6.07;2.10;;;;;;;9.08;78.27;98653.78;5037790;28;20296;-71
2023/11/04 09:16:30;;;;;;;3.80;2.33;;;;;;;9.12;77.21;98659.88;5033909;28;20215;-70
2023/11/04 09:18:57;;;;;;;8.13;2.50;;;;;;;9.15;78.86;98653.84;5036969;28;20229;-71
2023/11/04 09:21:23;;;;;;;2.73;1.80;;;;;;;9.20;75.14;98656.94;5036896;28;20213;-70
2023/11/04 09:23:50;;;;;;;4.83;2.43;;;;;;;9.22;80.01;98665.22;5033051;28;20704;-70
2023/11/04 09:26:17;;;;;;;4.03;2.77;;;;;;;9.24;79.20;98652.47;5036992;28;20299;-68
2023/11/04 09:28:43;;;;;;;9.00;2.53;;;;;;;9.26;78.41;98650.22;5034207;28;20208;-70
2023/11/04 09:31:10;;;;;;;4.93;2.93;;;;;;;9.30;76.77;98643.09;5038185;28;20215;-70
2023/11/04 09:33:37;;;;;;;5.83;2.33;;;;;;;9.33;80.08;98639.75;5035225;28;20604;-70
2023/11/04 09:36:04;;;;;;;4.67;3.03;;;;;;;9.33;76.94;98639.75;5034222;28;20254;-69
2023/11/04 09:38:30;;;;;;;2.87;2.53;;;;;;;9.36;76.15;98638.25;5034309;28;20211;-70
2023/11/04 09:41:00;;;;;;;6.77;2.70;;;;;;;9.37;78.38;98635.25;5038466;28;20588;-69
2023/11/04 09:43:27;;;;;;;5.47;2.70;;;;;;;9.40;75.22;98639.03;5035802;28;20205;-68
2023/11/04 09:45:54;;;;;;;5.07;2.77;;;;;;;9.41;77.45;98637.91;5038778;28;20226;-70
2023/11/04 09:48:23;;;;;;;3.30;2.50;;;;;;;9.43;77.64;98625.91;5038154;28;20206;-69
2023/11/04 09:50:52;;;;;;;4.23;2.53;;;;;;;9.46;78.76;98627.03;5033769;28;20477;-70
2023/11/04 09:53:28;;;;;;;9.93;2.57;;;;;;;9.49;78.81;98627.09;5036981;28;20772;-68
2023/11/04 09:55:55;;;;;;;5.03;2.53;;;;;;;9.53;77.20;98624.47;5035818;28;20219;-70
2023/11/04 09:58:21;;;;;;;5.33;3.17;;;;;;;9.57;76.49;98617.38;5031131;28;20219;-69
2023/11/04 10:00:48;;;;;;;3.40;2.50;;;;;;;9.60;80.63;98621.88;5035082;28;21526;-69
2023/11/04 10:03:16;;;;;;;4.77;2.60;;;;;;;9.64;79.02;98633.22;5010934;28;20207;-69
2023/11/04 10:05:44;;;;;;;13.07;6.57;;;;;;;9.68;79.04;98628.75;5036045;28;20234;-69
2023/11/04 10:08:11;;;;;;;7.33;3.70;;;;;;;9.71;76.96;98620.84;5036575;28;20246;-70
2023/11/04 10:10:40;;;;;;;6.83;2.53;;;;;;;9.75;77.04;98616.38;5036629;28;20214;-70
2023/11/04 10:13:07;;;;;;;3.17;2.80;;;;;;;9.82;75.45;98618.28;5034046;28;20218;-70
2023/11/04 10:15:34;;;;;;;3.33;2.10;;;;;;;9.86;75.40;98617.19;5032494;28;20227;-70
2023/11/04 10:18:01;;;;;;;2.90;2.50;;;;;;;9.92;73.12;98615.72;5028400;28;20219;-69
2023/11/04 10:20:27;;;;;;;4.67;3.10;;;;;;;9.96;75.93;98613.84;5035163;28;20233;-69
2023/11/04 10:22:55;;;;;;;5.43;3.90;;;;;;;10.01;75.83;98600.31;5036045;28;20211;-70
2023/11/04 10:25:21;;;;;;;4.30;2.40;;;;;;;10.02;73.81;98604.47;5032681;28;20329;-68
2023/11/04 10:27:48;;;;;;;2.30;1.80;;;;;;;10.07;73.58;98606.78;5035089;28;20207;-70
2023/11/04 10:30:14;;;;;;;5.23;2.33;;;;;;;10.11;72.88;98598.91;5013404;28;20208;-70
2023/11/04 10:32:48;;;;;;;2.20;1.60;;;;;;;10.19;71.57;98590.63;5029502;28;20206;-70
2023/11/04 10:35:17;;;;;;;1.40;1.30;;;;;;;10.23;74.31;98591.41;5032824;28;20227;-69
2023/11/04 10:37:47;;;;;;;2.27;1.20;;;;;;;10.28;73.40;98591.06;5032482;28;21048;-70
2023/11/04 10:40:14;;;;;;;1.43;1.30;;;;;;;10.31;73.02;98574.47;5031765;28;20203;-70
2023/11/04 10:42:48;;;;;;;2.57;1.13;;;;;;;10.37;71.71;98566.97;5032448;28;20681;-67
2023/11/04 10:45:19;;;;;;;1.10;1.00;;;;;;;10.42;70.81;98577.16;5031503;28;20304;-70
2023/11/04 10:47:53;;;;;;;2.37;1.57;;;;;;;10.43;65.90;98571.53;5031678;28;20621;-71
2023/11/04 10:50:23;;;;;;;1.63;1.10;;;;;;;10.46;67.87;98568.13;5036655;28;20211;-70
2023/11/04 10:53:00;;;;;;;2.47;1.13;;;;;;;10.49;70.91;98562.13;5034610;28;20200;-68
2023/11/04 10:55:37;;;;;;;1.40;1.30;;;;;;;10.53;70.33;98567.41;5030858;28;20464;-70
2023/11/04 10:58:07;;;;;;;1.63;1.10;;;;;;;10.61;67.99;98567.03;5030975;28;20222;-70
2023/11/04 11:00:35;;;;;;;2.63;1.40;;;;;;;10.61;71.98;98564.41;5031774;28;20211;-69
2023/11/04 11:03:02;;;;;;;1.00;0.80;;;;;;;10.60;73.19;98565.53;5032679;28;20204;-71
2023/11/04 11:05:30;;;;;;;1.17;0.90;;;;;;;10.57;72.57;98561.00;5032971;28;20227;-70
2023/11/04 11:07:57;;;;;;;1.60;1.20;;;;;;;10.57;65.81;98560.25;5034674;28;20208;-70
2023/11/04 11:10:30;;;;;;;1.30;1.20;;;;;;;10.55;65.66;98552.69;5034565;28;20265;-71
2023/11/04 11:13:06;;;;;;;4.53;1.20;;;;;;;10.56;68.07;98564.75;5031513;28;20201;-70
2023/11/04 11:15:33;;;;;;;2.13;1.17;;;;;;;10.59;70.40;98563.25;5031826;28;20237;-68
2023/11/04 11:18:00;;;;;;;1.40;1.30;;;;;;;10.66;69.94;98558.03;5033642;28;20222;-70
2023/11/04 11:20:28;;;;;;;1.30;1.17;;;;;;;10.70;70.56;98564.81;5030203;28;20212;-70
2023/11/04 11:22:57;;;;;;;2.47;1.27;;;;;;;10.78;70.26;98568.22;5030252;28;20207;-69
2023/11/04 11:25:29;;;;;;;1.83;1.43;;;;;;;10.86;71.80;98561.81;5035841;28;20230;-69
2023/11/04 11:27:56;;;;;;;1.60;1.27;;;;;;;10.94;67.75;98556.19;5036884;28;20222;-70
2023/11/04 11:30:33;;;;;;;2.53;1.50;;;;;;;11.02;72.74;98554.31;5035552;28;20661;-71
2023/11/04 11:33:05;;;;;;;1.70;1.60;;;;;;;11.06;67.97;98547.13;5033521;28;20801;-70
2023/11/04 11:35:57;;;;;;;2.53;1.57;;;;;;;11.13;69.65;98560.34;5035883;28;20237;-70
2023/11/04 11:38:24;;;;;;;2.33;1.50;;;;;;;11.18;71.33;98560.69;5034238;28;20297;-70
2023/11/04 11:40:50;;;;;;;3.97;1.90;;;;;;;11.23;67.43;98554.31;5034255;28;20237;-70